createdAt,value
2019-05-03T00:02:34.458Z,15.70
2019-05-03T00:05:05.459Z,16.00
2019-05-03T00:07:34.791Z,16.20
2019-05-03T00:10:04.455Z,16.40
2019-05-03T00:12:33.764Z,16.50
2019-05-03T00:15:08.843Z,16.50
2019-05-03T00:17:38.258Z,16.40
2019-05-03T00:20:07.706Z,16.30
2019-05-03T00:22:37.780Z,16.20
2019-05-03T00:25:08.479Z,16.10
2019-05-03T00:27:37.273Z,16.10
2019-05-03T00:30:07.876Z,16.10
2019-05-03T00:32:37.446Z,16.10
2019-05-03T00:35:17.294Z,16.10
2019-05-03T00:37:47.472Z,16.00
2019-05-03T00:40:18.156Z,16.00
2019-05-03T00:42:47.434Z,15.90
2019-05-03T00:45:16.740Z,16.00
2019-05-03T00:47:47.165Z,15.90
2019-05-03T00:50:16.054Z,16.00
2019-05-03T00:52:46.430Z,15.90
2019-05-03T00:55:18.762Z,15.90
2019-05-03T00:57:45.998Z,15.80
2019-05-03T01:00:15.317Z,15.70
2019-05-03T01:02:44.721Z,15.80
2019-05-03T01:05:14.579Z,15.90
2019-05-03T01:07:43.798Z,15.90
2019-05-03T01:10:13.312Z,16.00
2019-05-03T01:12:42.861Z,16.00
2019-05-03T01:15:12.467Z,15.90
2019-05-03T01:17:42.050Z,15.90
2019-05-03T01:20:11.956Z,15.90
2019-05-03T01:22:42.494Z,15.90
2019-05-03T01:25:12.095Z,15.90
2019-05-03T01:27:42.688Z,15.90
2019-05-03T01:30:11.946Z,15.90
2019-05-03T01:32:41.817Z,16.00
2019-05-03T01:35:12.306Z,15.90
2019-05-03T01:37:42.507Z,15.70
2019-05-03T01:40:12.526Z,15.80
2019-05-03T01:42:42.642Z,15.80
2019-05-03T01:45:12.068Z,15.70
2019-05-03T01:47:45.194Z,15.70
2019-05-03T01:50:19.647Z,15.60
2019-05-03T01:52:50.064Z,15.50
2019-05-03T01:55:19.788Z,15.50
2019-05-03T01:57:49.798Z,15.40
2019-05-03T02:00:23.189Z,15.40
2019-05-03T02:02:53.203Z,15.40
2019-05-03T02:08:19.560Z,15.40
2019-05-03T02:10:51.649Z,15.30
2019-05-03T02:13:19.998Z,15.30
2019-05-03T02:15:49.606Z,15.30
2019-05-03T02:18:19.005Z,15.20
2019-05-03T02:20:48.638Z,15.20
2019-05-03T02:23:18.055Z,15.20
2019-05-03T02:25:55.930Z,15.10
2019-05-03T02:28:17.960Z,15.10
2019-05-03T02:30:47.662Z,15.10
2019-05-03T02:33:17.273Z,15.00
2019-05-03T02:35:46.880Z,15.00
2019-05-03T02:38:16.493Z,15.00
2019-05-03T02:40:46.231Z,14.90
2019-05-03T02:43:16.693Z,14.90
2019-05-03T02:45:51.768Z,14.80
2019-05-03T02:51:20.244Z,14.70
2019-05-03T02:53:49.519Z,14.70
2019-05-03T02:56:22.463Z,14.70
2019-05-03T02:58:48.989Z,14.70
2019-05-03T03:01:18.901Z,14.70
2019-05-03T03:03:48.390Z,14.70
2019-05-03T03:06:18.260Z,14.60
2019-05-03T03:08:48.852Z,14.50
2019-05-03T03:11:18.474Z,14.50
2019-05-03T03:13:49.387Z,14.60
2019-05-03T03:16:20.832Z,14.50
2019-05-03T03:18:49.434Z,14.50
2019-05-03T03:21:19.637Z,14.50
2019-05-03T03:24:01.900Z,14.50
2019-05-03T03:26:39.255Z,14.50
2019-05-03T03:29:05.312Z,14.40
2019-05-03T03:31:48.582Z,14.40
2019-05-03T03:34:18.679Z,14.30
2019-05-03T03:37:03.573Z,14.20
2019-05-03T03:39:21.183Z,14.20
2019-05-03T03:41:51.226Z,14.20
2019-05-03T03:44:21.113Z,14.20
2019-05-03T03:46:50.561Z,14.20
2019-05-03T03:49:20.758Z,14.20
2019-05-03T03:51:51.496Z,14.20
2019-05-03T03:54:21.568Z,14.10
2019-05-03T03:56:59.373Z,14.20
2019-05-03T03:59:26.663Z,14.10
2019-05-03T04:01:55.323Z,14.20
2019-05-03T04:04:26.012Z,14.10
2019-05-03T04:06:58.600Z,14.10
2019-05-03T04:09:25.521Z,14.20
2019-05-03T04:11:56.437Z,14.10
2019-05-03T04:14:25.395Z,14.20
2019-05-03T04:17:05.958Z,14.20
2019-05-03T04:19:36.458Z,14.10
2019-05-03T04:22:05.854Z,14.10
2019-05-03T04:24:35.616Z,14.00
2019-05-03T04:27:15.642Z,14.00
2019-05-03T04:29:37.405Z,14.00
2019-05-03T04:32:08.578Z,14.00
2019-05-03T04:34:39.187Z,13.90
2019-05-03T04:37:08.808Z,13.90
2019-05-03T04:39:38.523Z,13.90
2019-05-03T04:42:08.220Z,13.90
2019-05-03T04:44:37.800Z,13.90
2019-05-03T04:47:07.310Z,13.90
2019-05-03T04:49:37.688Z,13.80
2019-05-03T04:52:07.263Z,13.80
2019-05-03T04:54:36.876Z,13.90
2019-05-03T04:57:06.782Z,13.80
2019-05-03T04:59:36.599Z,13.90
2019-05-03T05:02:06.259Z,13.80
2019-05-03T05:04:36.311Z,13.80
2019-05-03T05:07:06.227Z,13.80
2019-05-03T05:09:35.786Z,13.80
2019-05-03T05:12:05.850Z,13.80
2019-05-03T05:14:35.587Z,13.80
2019-05-03T05:17:06.141Z,13.80
2019-05-03T05:22:31.996Z,13.70
2019-05-03T05:25:04.364Z,13.60
2019-05-03T05:27:34.643Z,13.60
2019-05-03T05:30:04.584Z,13.60
2019-05-03T05:32:34.959Z,13.70
2019-05-03T05:35:05.165Z,13.70
2019-05-03T05:37:35.125Z,13.70
2019-05-03T05:40:05.192Z,13.70
2019-05-03T05:42:35.036Z,13.70
2019-05-03T05:45:04.918Z,13.60
2019-05-03T05:47:35.309Z,13.60
2019-05-03T05:50:06.122Z,13.60
2019-05-03T05:52:35.219Z,13.60
2019-05-03T05:55:07.869Z,13.60
2019-05-03T05:57:38.505Z,13.60
2019-05-03T06:00:25.664Z,13.50
2019-05-03T06:02:55.141Z,13.50
2019-05-03T06:05:25.196Z,13.50
2019-05-03T06:07:55.198Z,13.50
2019-05-03T06:10:30.507Z,13.50
2019-05-03T06:13:05.543Z,13.40
2019-05-03T06:15:54.703Z,13.40
2019-05-03T06:18:25.114Z,13.40
2019-05-03T06:21:00.060Z,13.40
2019-05-03T06:23:29.671Z,13.40
2019-05-03T06:25:59.683Z,13.40
2019-05-03T06:28:29.725Z,13.40
2019-05-03T06:31:15.449Z,13.30
2019-05-03T06:33:45.110Z,13.30
2019-05-03T06:36:15.266Z,13.30
2019-05-03T06:38:45.274Z,13.30
2019-05-03T06:41:15.147Z,13.20
2019-05-03T06:43:48.512Z,13.30
2019-05-03T06:46:18.163Z,13.20
2019-05-03T06:48:44.889Z,13.20
2019-05-03T06:51:17.827Z,13.20
2019-05-03T06:53:48.937Z,13.20
2019-05-03T06:56:14.938Z,13.20
2019-05-03T06:58:44.869Z,13.30
2019-05-03T07:01:18.182Z,13.20
2019-05-03T07:03:48.910Z,13.20
2019-05-03T07:06:37.447Z,13.10
2019-05-03T07:08:59.998Z,13.20
2019-05-03T07:11:30.341Z,13.20
2019-05-03T07:13:59.826Z,13.10
2019-05-03T07:16:29.427Z,13.20
2019-05-03T07:18:58.744Z,13.10
2019-05-03T07:21:28.155Z,13.10
2019-05-03T07:23:57.661Z,13.10
2019-05-03T07:26:27.257Z,13.10
2019-05-03T07:28:57.670Z,13.00
2019-05-03T07:31:27.190Z,13.00
2019-05-03T07:33:56.782Z,13.00
2019-05-03T07:36:28.369Z,12.90
2019-05-03T07:38:56.517Z,12.90
2019-05-03T07:41:27.256Z,13.00
2019-05-03T07:43:56.029Z,13.00
2019-05-03T07:46:26.362Z,13.00
2019-05-03T07:48:55.534Z,13.00
2019-05-03T07:51:25.990Z,13.00
2019-05-03T07:53:55.690Z,13.00
2019-05-03T07:56:29.096Z,13.00
2019-05-03T07:59:03.167Z,13.00
2019-05-03T08:01:30.776Z,12.90
2019-05-03T08:04:00.215Z,12.90
2019-05-03T08:06:29.774Z,12.90
2019-05-03T08:08:59.267Z,12.90
2019-05-03T08:11:28.670Z,12.80
2019-05-03T08:13:58.185Z,12.80
2019-05-03T08:16:27.892Z,12.70
2019-05-03T08:18:57.303Z,12.70
2019-05-03T08:21:26.677Z,12.70
2019-05-03T08:23:56.420Z,12.70
2019-05-03T08:26:25.899Z,12.60
2019-05-03T08:28:55.721Z,12.60
2019-05-03T08:31:32.528Z,12.60
2019-05-03T08:34:04.817Z,12.50
2019-05-03T08:39:27.660Z,12.40
2019-05-03T08:41:58.679Z,12.40
2019-05-03T08:44:28.088Z,12.30
2019-05-03T08:46:58.030Z,12.30
2019-05-03T08:49:27.630Z,12.30
2019-05-03T08:51:56.900Z,12.40
2019-05-03T08:54:27.054Z,12.40
2019-05-03T08:56:56.734Z,12.30
2019-05-03T08:59:32.195Z,12.30
2019-05-03T09:01:56.762Z,12.30
2019-05-03T09:04:36.141Z,12.30
2019-05-03T09:06:56.080Z,12.40
2019-05-03T09:09:34.902Z,12.40
2019-05-03T09:12:04.792Z,12.40
2019-05-03T09:14:42.605Z,12.40
2019-05-03T09:17:04.938Z,12.40
2019-05-03T09:19:34.727Z,12.40
2019-05-03T09:22:05.979Z,12.30
2019-05-03T09:24:35.164Z,12.40
2019-05-03T09:27:05.104Z,12.40
2019-05-03T09:29:41.071Z,12.40
2019-05-03T09:32:05.203Z,12.30
2019-05-03T09:34:35.161Z,12.30
2019-05-03T09:37:04.791Z,12.30
2019-05-03T09:39:35.477Z,12.30
2019-05-03T09:42:04.712Z,12.30
2019-05-03T09:44:35.023Z,12.30
2019-05-03T09:47:05.595Z,12.30
2019-05-03T09:49:34.787Z,12.30
2019-05-03T09:52:08.005Z,12.30
2019-05-03T09:54:34.813Z,12.20
2019-05-03T09:57:05.875Z,12.20
2019-05-03T09:59:35.018Z,12.20
2019-05-03T10:02:05.018Z,12.20
2019-05-03T10:04:36.361Z,12.20
2019-05-03T10:07:04.470Z,12.10
2019-05-03T10:09:35.415Z,12.10
2019-05-03T10:12:05.478Z,12.10
2019-05-03T10:14:33.944Z,12.10
2019-05-03T10:17:05.500Z,12.10
2019-05-03T10:19:39.973Z,12.10
2019-05-03T10:22:05.898Z,12.10
2019-05-03T10:24:35.099Z,12.00
2019-05-03T10:27:05.631Z,12.00
2019-05-03T10:29:34.067Z,12.10
2019-05-03T10:32:06.494Z,12.10
2019-05-03T10:34:35.822Z,12.10
2019-05-03T10:37:06.832Z,12.10
2019-05-03T10:39:37.039Z,12.10
2019-05-03T10:42:06.363Z,12.00
2019-05-03T10:44:36.779Z,12.10
2019-05-03T10:47:06.407Z,12.00
2019-05-03T10:49:35.977Z,12.10
2019-05-03T10:52:05.701Z,12.10
2019-05-03T10:54:35.854Z,12.10
2019-05-03T10:57:12.395Z,12.00
2019-05-03T10:59:41.898Z,12.00
2019-05-03T11:02:12.331Z,12.00
2019-05-03T11:04:43.677Z,11.90
2019-05-03T11:07:11.848Z,11.90
2019-05-03T11:09:49.818Z,11.90
2019-05-03T11:12:11.160Z,11.90
2019-05-03T11:14:40.475Z,11.90
2019-05-03T11:17:10.067Z,11.90
2019-05-03T11:19:39.464Z,11.90
2019-05-03T11:22:09.298Z,11.90
2019-05-03T11:24:39.706Z,11.90
2019-05-03T11:27:11.260Z,11.90
2019-05-03T11:29:40.561Z,11.90
2019-05-03T11:32:14.858Z,11.90
2019-05-03T11:34:48.285Z,11.90
2019-05-03T11:40:15.693Z,11.80
2019-05-03T11:42:44.782Z,11.80
2019-05-03T11:45:15.238Z,11.70
2019-05-03T11:47:45.713Z,11.70
2019-05-03T11:50:14.905Z,11.70
2019-05-03T11:52:46.857Z,11.80
2019-05-03T11:55:15.997Z,11.80
2019-05-03T11:57:45.184Z,11.80
2019-05-03T12:00:14.982Z,11.90
2019-05-03T12:02:44.878Z,11.80
2019-05-03T12:05:30.497Z,11.80
2019-05-03T12:08:00.253Z,11.90
2019-05-03T12:10:46.002Z,11.90
2019-05-03T12:12:59.710Z,11.90
2019-05-03T12:15:29.454Z,11.90
2019-05-03T12:18:02.355Z,11.90
2019-05-03T12:20:32.793Z,11.80
2019-05-03T12:23:02.286Z,11.70
2019-05-03T12:25:32.014Z,11.80
2019-05-03T12:28:01.930Z,11.80
2019-05-03T12:30:31.357Z,11.80
2019-05-03T12:33:00.844Z,11.80
2019-05-03T12:35:30.456Z,11.80
2019-05-03T12:37:59.863Z,11.80
2019-05-03T12:40:29.354Z,11.80
2019-05-03T12:42:58.887Z,11.80
2019-05-03T12:45:29.324Z,11.70
2019-05-03T12:47:59.839Z,11.70
2019-05-03T12:50:29.338Z,11.70
2019-05-03T12:52:58.623Z,11.70
2019-05-03T12:55:28.235Z,11.70
2019-05-03T12:57:57.640Z,11.70
2019-05-03T13:00:30.214Z,11.70
2019-05-03T13:03:05.164Z,11.70
2019-05-03T13:05:35.621Z,11.70
2019-05-03T13:08:20.239Z,11.70
2019-05-03T13:10:49.927Z,11.70
2019-05-03T13:13:19.546Z,11.70
2019-05-03T13:15:49.064Z,11.70
2019-05-03T13:18:18.466Z,11.70
2019-05-03T13:20:47.870Z,11.70
2019-05-03T13:23:17.279Z,11.70
2019-05-03T13:25:46.750Z,11.70
2019-05-03T13:28:16.187Z,11.70
2019-05-03T13:30:45.904Z,11.70
2019-05-03T13:33:15.385Z,11.70
2019-05-03T13:35:44.989Z,11.80
2019-05-03T13:38:14.273Z,11.70
2019-05-03T13:40:45.195Z,11.80
2019-05-03T13:43:14.998Z,11.80
2019-05-03T13:45:45.063Z,11.80
2019-05-03T13:48:15.539Z,11.80
2019-05-03T13:50:44.640Z,11.80
2019-05-03T13:53:13.602Z,11.80
2019-05-03T13:55:44.539Z,11.80
2019-05-03T13:58:14.636Z,11.80
2019-05-03T14:00:45.159Z,11.80
2019-05-03T14:03:12.732Z,11.80
2019-05-03T14:05:41.916Z,11.80
2019-05-03T14:08:11.581Z,11.80
2019-05-03T14:10:41.236Z,11.70
2019-05-03T14:13:10.984Z,11.80
2019-05-03T14:15:40.455Z,11.90
2019-05-03T14:18:09.751Z,12.00
2019-05-03T14:20:43.296Z,12.10
2019-05-03T14:23:14.888Z,12.20
2019-05-03T14:25:44.653Z,12.10
2019-05-03T14:28:14.578Z,12.20
2019-05-03T14:30:45.362Z,12.20
2019-05-03T14:33:14.135Z,12.20
2019-05-03T14:35:45.244Z,12.20
2019-05-03T14:38:15.116Z,12.30
2019-05-03T14:40:44.886Z,12.30
2019-05-03T14:43:15.426Z,12.40
2019-05-03T14:45:43.646Z,12.50
2019-05-03T14:48:15.066Z,12.50
2019-05-03T14:50:43.079Z,12.60
2019-05-03T14:53:14.632Z,12.70
2019-05-03T14:55:45.148Z,12.80
2019-05-03T14:58:17.683Z,12.90
2019-05-03T15:01:04.655Z,12.90
2019-05-03T15:03:32.286Z,13.00
2019-05-03T15:06:01.795Z,13.10
2019-05-03T15:08:31.190Z,13.10
2019-05-03T15:11:00.794Z,13.10
2019-05-03T15:13:30.110Z,13.20
2019-05-03T15:15:59.583Z,13.30
2019-05-03T15:18:29.220Z,13.50
2019-05-03T15:20:58.486Z,13.30
2019-05-03T15:23:27.808Z,13.40
2019-05-03T15:25:57.226Z,13.30
2019-05-03T15:28:26.543Z,13.20
2019-05-03T15:30:56.432Z,13.30
2019-05-03T15:33:25.831Z,13.80
2019-05-03T15:35:55.286Z,13.90
2019-05-03T15:38:24.472Z,13.70
2019-05-03T15:40:54.813Z,13.70
2019-05-03T15:43:28.584Z,13.60
2019-05-03T15:46:06.403Z,13.70
2019-05-03T15:48:36.698Z,13.70
2019-05-03T15:51:06.100Z,13.70
2019-05-03T15:53:35.523Z,13.80
2019-05-03T15:56:05.492Z,13.90
2019-05-03T15:58:35.092Z,14.00
2019-05-03T16:01:04.795Z,14.10
2019-05-03T16:03:35.751Z,14.00
2019-05-03T16:06:04.911Z,14.00
2019-05-03T16:08:34.335Z,13.90
2019-05-03T16:11:05.266Z,13.90
2019-05-03T16:13:35.107Z,13.80
2019-05-03T16:16:04.335Z,13.70
2019-05-03T16:18:35.073Z,13.80
2019-05-03T16:21:05.028Z,13.70
2019-05-03T16:23:33.618Z,13.70
2019-05-03T16:26:04.877Z,13.80
2019-05-03T16:28:36.050Z,13.80
2019-05-03T16:31:05.525Z,13.90
2019-05-03T16:33:35.086Z,13.90
2019-05-03T16:36:05.503Z,13.80
2019-05-03T16:38:35.473Z,13.80
2019-05-03T16:41:05.137Z,13.80
2019-05-03T16:43:34.856Z,13.80
2019-05-03T16:46:05.477Z,13.80
2019-05-03T16:48:35.184Z,13.80
2019-05-03T16:51:03.834Z,14.00
2019-05-03T16:53:34.884Z,14.00
2019-05-03T16:56:03.590Z,14.00
2019-05-03T16:58:35.173Z,14.10
2019-05-03T17:01:02.966Z,14.00
2019-05-03T17:03:45.428Z,14.10
2019-05-03T17:09:18.362Z,14.40
2019-05-03T17:11:48.038Z,14.30
2019-05-03T17:14:17.180Z,14.40
2019-05-03T17:16:47.657Z,14.50
2019-05-03T17:19:17.250Z,14.50
2019-05-03T17:21:46.958Z,14.60
2019-05-03T17:24:16.257Z,14.70
2019-05-03T17:26:45.724Z,14.70
2019-05-03T17:29:15.360Z,14.70
2019-05-03T17:31:45.053Z,14.70
2019-05-03T17:34:14.569Z,14.80
2019-05-03T17:36:45.021Z,14.70
2019-05-03T17:39:15.550Z,15.00
2019-05-03T17:41:50.478Z,15.00
2019-05-03T17:44:20.861Z,15.10
2019-05-03T17:46:50.553Z,15.10
2019-05-03T17:49:20.069Z,15.00
2019-05-03T17:51:55.572Z,14.90
2019-05-03T17:57:25.266Z,14.90
2019-05-03T17:59:56.018Z,15.00
2019-05-03T18:02:31.356Z,15.00
2019-05-03T18:05:06.200Z,15.10
2019-05-03T18:07:37.235Z,15.10
2019-05-03T18:10:07.423Z,15.20
2019-05-03T18:12:36.971Z,15.30
2019-05-03T18:15:07.491Z,15.30
2019-05-03T18:17:36.776Z,15.50
2019-05-03T18:20:06.531Z,15.50
2019-05-03T18:22:35.991Z,15.50
2019-05-03T18:25:06.044Z,15.60
2019-05-03T18:27:35.755Z,15.60
2019-05-03T18:30:06.288Z,15.70
2019-05-03T18:32:36.076Z,15.70
2019-05-03T18:35:05.384Z,15.60
2019-05-03T18:37:34.968Z,15.50
2019-05-03T18:40:04.988Z,15.60
2019-05-03T18:42:35.449Z,15.70
2019-05-03T18:45:08.268Z,15.70
2019-05-03T18:47:37.915Z,15.80
2019-05-03T18:50:08.154Z,15.90
2019-05-03T18:52:37.485Z,15.80
2019-05-03T18:55:07.184Z,15.90
2019-05-03T18:57:36.895Z,15.90
2019-05-03T19:00:08.223Z,15.80
2019-05-03T19:02:36.273Z,15.80
2019-05-03T19:05:06.395Z,15.80
2019-05-03T19:07:41.137Z,15.80
2019-05-03T19:10:10.914Z,15.80
2019-05-03T19:12:40.577Z,15.80
2019-05-03T19:15:10.448Z,15.90
2019-05-03T19:17:45.473Z,15.90
2019-05-03T19:20:15.587Z,15.90
2019-05-03T19:22:46.037Z,15.90
2019-05-03T19:25:15.492Z,15.90
2019-05-03T19:27:45.189Z,16.00
2019-05-03T19:30:14.940Z,15.80
2019-05-03T19:32:45.059Z,15.90
2019-05-03T19:35:15.734Z,16.10
2019-05-03T19:37:46.394Z,16.30
2019-05-03T19:40:14.490Z,16.40
2019-05-03T19:42:44.741Z,16.70
2019-05-03T19:45:15.227Z,16.80
2019-05-03T19:47:44.602Z,16.80
2019-05-03T19:50:15.539Z,16.80
2019-05-03T19:52:48.743Z,16.80
2019-05-03T19:55:17.945Z,17.00
2019-05-03T19:57:47.582Z,17.00
2019-05-03T20:00:17.302Z,17.20
2019-05-03T20:02:51.865Z,17.30
2019-05-03T20:08:25.341Z,17.60
2019-05-03T20:11:10.209Z,17.50
2019-05-03T20:13:39.515Z,17.60
2019-05-03T20:16:09.117Z,17.60
2019-05-03T20:18:38.423Z,17.80
2019-05-03T20:21:07.848Z,17.70
2019-05-03T20:23:37.138Z,17.70
2019-05-03T20:26:06.659Z,17.60
2019-05-03T20:28:36.155Z,17.50
2019-05-03T20:31:05.653Z,17.70
2019-05-03T20:33:35.254Z,17.60
2019-05-03T20:36:05.723Z,18.00
2019-05-03T20:38:35.260Z,18.00
2019-05-03T20:41:05.228Z,18.00
2019-05-03T20:43:36.463Z,18.10
2019-05-03T20:46:10.564Z,18.40
2019-05-03T20:48:38.854Z,18.10
2019-05-03T20:51:08.569Z,18.00
2019-05-03T20:53:38.184Z,18.10
2019-05-03T20:56:11.024Z,18.20
2019-05-03T20:58:41.108Z,18.10
2019-05-03T21:01:10.723Z,18.10
2019-05-03T21:03:40.296Z,18.20
2019-05-03T21:06:09.645Z,18.30
2019-05-03T21:08:49.613Z,18.20
2019-05-03T21:11:08.972Z,18.20
2019-05-03T21:13:42.002Z,18.40
2019-05-03T21:16:09.763Z,18.30
2019-05-03T21:18:39.649Z,18.30
2019-05-03T21:21:15.372Z,18.40
2019-05-03T21:26:37.871Z,18.30
2019-05-03T21:29:07.179Z,18.10
2019-05-03T21:31:36.483Z,18.00
2019-05-03T21:34:06.017Z,17.90
2019-05-03T21:36:35.211Z,18.00
2019-05-03T21:39:05.328Z,17.90
2019-05-03T21:41:35.015Z,17.60
2019-05-03T21:44:04.809Z,17.60
2019-05-03T21:46:37.643Z,17.50
2019-05-03T21:49:08.092Z,17.40
2019-05-03T21:51:37.633Z,17.40
2019-05-03T21:54:07.252Z,17.30
2019-05-03T21:56:36.755Z,17.10
2019-05-03T21:59:06.211Z,17.00
2019-05-03T22:01:37.501Z,16.80
2019-05-03T22:04:05.616Z,16.60
2019-05-03T22:06:35.174Z,16.50
2019-05-03T22:09:05.112Z,16.50
2019-05-03T22:11:34.983Z,16.40
2019-05-03T22:14:05.454Z,16.20
2019-05-03T22:16:35.763Z,16.20
2019-05-03T22:19:05.107Z,16.20
2019-05-03T22:21:39.598Z,16.10
2019-05-03T22:24:14.808Z,16.00
2019-05-03T22:26:49.923Z,16.00
2019-05-03T22:29:19.032Z,15.90
2019-05-03T22:31:48.479Z,15.90
2019-05-03T22:34:18.005Z,15.90
2019-05-03T22:36:47.263Z,15.90
2019-05-03T22:39:16.636Z,15.80
2019-05-03T22:41:45.848Z,15.80
2019-05-03T22:44:17.094Z,15.70
2019-05-03T22:46:46.092Z,15.70
2019-05-03T22:49:15.740Z,15.70
2019-05-03T22:51:45.456Z,15.70
2019-05-03T22:54:15.409Z,15.80
2019-05-03T22:56:44.821Z,15.80
2019-05-03T22:59:14.703Z,15.80
2019-05-03T23:01:45.496Z,15.90
2019-05-03T23:04:14.716Z,15.90
2019-05-03T23:06:46.676Z,15.90
2019-05-03T23:09:13.089Z,16.00
2019-05-03T23:11:44.575Z,16.00
2019-05-03T23:14:11.954Z,16.10
2019-05-03T23:16:41.486Z,16.30
2019-05-03T23:19:10.693Z,16.40
2019-05-03T23:21:51.367Z,16.40
2019-05-03T23:24:21.018Z,16.50
2019-05-03T23:26:50.629Z,16.60
2019-05-03T23:29:20.204Z,16.70
2019-05-03T23:31:49.804Z,16.60
2019-05-03T23:34:19.305Z,16.50
2019-05-03T23:36:49.456Z,16.70
2019-05-03T23:39:19.065Z,16.60
2019-05-03T23:41:48.559Z,16.70
2019-05-03T23:44:18.018Z,16.60
2019-05-03T23:46:50.790Z,16.60
2019-05-03T23:49:21.427Z,16.70
2019-05-03T23:51:51.246Z,16.70
2019-05-03T23:54:20.949Z,16.60
2019-05-03T23:56:50.264Z,16.50
2019-05-03T23:59:19.915Z,16.50
